Airfield :
LOGIN :

Register | Disclaimer

   EN    FR    IT 

 










Legend :    VFR   Marginal VFR   IFR   Intensive IFR   Very Intensive IFR
Visi :
Ceiling :
>= 8 km
>= 3000ft
5 to 8 km
1000 to 3000 ft
1500m to 5 km
500 to 1000 ft
800 to 1500m
200 to 500 ft
< 800m
< 200 ft
Symbols :   Thunderstorms  Fog  Heavy snow  Heavy precipitations  Wind > 20 kt
SIGMETs :     Misc.  Thunderstorms  Icing  Turbulence  Mountain Waves  Volcanic Ashes






- Airport Elevation : 14 ft
- IATA code : BRE


EDDW - Bremen Neuenland

CURRENT METAR :
  • 292250Z 18009KT 7000 -RA BKN007 10/09 Q1012

EXPIRED METARs :
  • 292220Z 17010KT 8000 -RA BKN007 BKN013 10/09 Q1012
  • 292150Z 17009KT 9000 -RA BKN007 BKN013 10/09 Q1013 RERA
  • 292120Z 17008KT 9000 -RA BKN013 10/09 Q1013
  • 292050Z 19008KT 9999 -RA BKN027 10/09 Q1014 TEMPO RA BKN014
  • 292020Z 19008KT 9999 -RA SCT012 BKN046 09/09 Q1014 TEMPO RA BKN014

TAF TAF EDDW
Valid from the 29 at 18:00 until the 30 at 18:00 UTC


291700Z 2918/3018 20007KT 9999 SCT040
TEMPO 2919/2924 4500 RA BKN008 OVC014
FM300000 21007KT 7000 OVC010
TEMPO 3000/3018 25013KT 2000 -RADZ BR OVC004
PROB30
TEMPO 3007/3013 26015G25KT BKN015



MET'MAP, your aeronautical weather chart ! - Copyright ORBIFLY December 2007 - Disclaimer

ORBIFLY MET'MAP TEAM :

Programming & Development : Alexandra Zaïnal
Concept & original design : Baudouin d'Aumeries
Assistance for programming : Marc-Olivier Méhu
Technical & hardware support : Manuel Goepfert

Contact : metmap@orbifly.com




SOURCES & CREDITS :

   NOAA